createdAt,value
2023-02-11T00:01:48.979Z,53.25
2023-02-11T00:04:16.444Z,46.95
2023-02-11T00:06:42.972Z,44.88
2023-02-11T00:09:10.822Z,42.35
2023-02-11T00:11:37.385Z,52.80
2023-02-11T00:14:07.726Z,52.42
2023-02-11T00:16:34.537Z,49.75
2023-02-11T00:19:03.110Z,47.95
2023-02-11T00:21:29.773Z,51.15
2023-02-11T00:23:59.643Z,52.67
2023-02-11T00:26:29.157Z,53.80
2023-02-11T00:28:57.082Z,53.40
2023-02-11T00:31:24.340Z,56.28
2023-02-11T00:33:51.193Z,53.45
2023-02-11T00:36:23.882Z,57.97
2023-02-11T00:38:51.787Z,57.33
2023-02-11T00:41:20.494Z,54.42
2023-02-11T00:43:47.697Z,51.33
2023-02-11T00:46:15.130Z,48.00
2023-02-11T00:48:42.086Z,55.67
2023-02-11T00:51:09.006Z,47.20
2023-02-11T00:53:35.892Z,54.00
2023-02-11T00:56:02.418Z,48.38
2023-02-11T00:58:29.202Z,56.22
2023-02-11T01:00:56.306Z,51.75
2023-02-11T01:03:23.038Z,53.08
2023-02-11T01:05:49.886Z,46.70
2023-02-11T01:08:16.598Z,54.50
2023-02-11T01:10:43.989Z,61.42
2023-02-11T01:13:11.040Z,57.20
2023-02-11T01:15:37.871Z,49.30
2023-02-11T01:18:05.839Z,51.83
2023-02-11T01:20:32.672Z,54.40
2023-02-11T01:22:59.230Z,52.50
2023-02-11T01:25:25.716Z,51.40
2023-02-11T01:27:52.222Z,48.47
2023-02-11T01:30:18.697Z,47.20
2023-02-11T01:32:45.145Z,56.05
2023-02-11T01:35:11.686Z,51.40
2023-02-11T01:37:38.488Z,48.70
2023-02-11T01:40:12.086Z,53.22
2023-02-11T01:42:38.614Z,50.78
2023-02-11T01:45:39.005Z,55.22
2023-02-11T01:48:05.698Z,53.83
2023-02-11T01:50:32.443Z,61.53
2023-02-11T01:53:18.983Z,58.85
2023-02-11T01:56:04.343Z,56.30
2023-02-11T01:58:34.801Z,56.72
2023-02-11T02:01:04.578Z,56.72
2023-02-11T02:03:33.361Z,56.92
2023-02-11T02:06:03.862Z,62.90
2023-02-11T02:09:05.573Z,56.65
2023-02-11T02:11:32.199Z,53.88
2023-02-11T02:13:59.195Z,55.22
2023-02-11T02:16:33.063Z,51.72
2023-02-11T02:19:11.669Z,52.40
2023-02-11T02:22:16.048Z,55.90
2023-02-11T02:27:20.603Z,52.15
2023-02-11T02:29:49.795Z,59.40
2023-02-11T02:32:32.344Z,54.97
2023-02-11T02:35:20.263Z,57.55
2023-02-11T02:38:05.053Z,58.75
2023-02-11T02:40:36.812Z,54.78
2023-02-11T02:43:04.782Z,51.45
2023-02-11T02:45:31.311Z,51.42
2023-02-11T02:47:57.855Z,50.10
2023-02-11T02:50:30.694Z,50.42
2023-02-11T02:53:27.694Z,46.58
2023-02-11T02:56:06.585Z,50.40
2023-02-11T02:58:51.303Z,49.15
2023-02-11T03:01:40.069Z,53.80
2023-02-11T03:04:21.166Z,54.88
2023-02-11T03:07:07.024Z,56.28
2023-02-11T03:09:47.924Z,52.78
2023-02-11T03:12:15.614Z,50.95
2023-02-11T03:14:42.247Z,51.60
2023-02-11T03:17:10.375Z,54.42
2023-02-11T03:19:43.637Z,49.90
2023-02-11T03:22:29.426Z,47.17
2023-02-11T03:24:56.825Z,49.13
2023-02-11T03:27:37.695Z,48.13
2023-02-11T03:30:33.157Z,48.90
2023-02-11T03:33:23.260Z,50.03
2023-02-11T03:36:19.673Z,53.67
2023-02-11T03:38:50.975Z,49.75
2023-02-11T03:41:21.656Z,49.72
2023-02-11T03:43:51.693Z,47.15
2023-02-11T03:46:22.512Z,50.55
2023-02-11T03:48:56.123Z,49.20
2023-02-11T03:53:54.966Z,52.20
2023-02-11T03:56:25.714Z,45.50
2023-02-11T03:58:52.521Z,47.00
2023-02-11T04:01:19.130Z,50.10
2023-02-11T04:03:45.601Z,46.30
2023-02-11T04:06:12.180Z,46.15
2023-02-11T04:08:38.762Z,50.10
2023-02-11T04:11:05.265Z,48.97
2023-02-11T04:13:31.843Z,46.20
2023-02-11T04:15:58.338Z,47.90
2023-02-11T04:18:24.975Z,46.50
2023-02-11T04:20:51.594Z,48.17
2023-02-11T04:23:18.076Z,48.45
2023-02-11T04:25:44.547Z,50.55
2023-02-11T04:28:11.107Z,53.83
2023-02-11T04:30:37.629Z,58.22
2023-02-11T04:33:04.189Z,48.58
2023-02-11T04:35:30.716Z,48.05
2023-02-11T04:37:57.516Z,47.30
2023-02-11T04:40:24.030Z,53.35
2023-02-11T04:42:50.624Z,47.15
2023-02-11T04:45:17.099Z,56.55
2023-02-11T04:47:43.649Z,52.53
2023-02-11T04:50:10.255Z,49.17
2023-02-11T04:52:36.793Z,50.33
2023-02-11T04:55:04.110Z,55.25
2023-02-11T04:57:30.654Z,54.58
2023-02-11T04:59:57.127Z,52.28
2023-02-11T05:02:23.630Z,54.80
2023-02-11T05:04:50.130Z,57.67
2023-02-11T05:07:16.566Z,54.45
2023-02-11T05:09:43.098Z,59.63
2023-02-11T05:12:10.155Z,59.90
2023-02-11T05:14:36.630Z,57.75
2023-02-11T05:17:03.222Z,57.67
2023-02-11T05:19:31.295Z,54.30
2023-02-11T05:22:03.047Z,60.83
2023-02-11T05:24:33.492Z,54.38
2023-02-11T05:27:00.522Z,53.35
2023-02-11T05:29:27.635Z,58.53
2023-02-11T05:31:54.113Z,52.65
2023-02-11T05:34:20.678Z,55.13
2023-02-11T05:36:47.165Z,57.72
2023-02-11T05:39:13.656Z,47.10
2023-02-11T05:41:40.184Z,49.00
2023-02-11T05:44:06.691Z,55.90
2023-02-11T05:46:33.270Z,54.20
2023-02-11T05:48:59.745Z,52.70
2023-02-11T05:51:26.277Z,49.80
2023-02-11T05:53:53.226Z,52.65
2023-02-11T05:56:19.772Z,50.53
2023-02-11T05:58:46.288Z,51.65
2023-02-11T06:01:12.773Z,55.20
2023-02-11T06:03:39.384Z,52.67
2023-02-11T06:06:10.488Z,60.03
2023-02-11T06:08:39.186Z,51.20
2023-02-11T06:11:05.917Z,51.22
2023-02-11T06:13:32.381Z,53.85
2023-02-11T06:16:00.539Z,54.00
2023-02-11T06:18:27.230Z,54.92
2023-02-11T06:20:53.929Z,57.38
2023-02-11T06:23:20.634Z,56.63
2023-02-11T06:25:47.158Z,53.58
2023-02-11T06:28:13.748Z,54.67
2023-02-11T06:30:40.655Z,57.78
2023-02-11T06:33:07.228Z,53.72
2023-02-11T06:35:35.333Z,54.00
2023-02-11T06:38:01.922Z,51.08
2023-02-11T06:40:28.435Z,54.10
2023-02-11T06:42:54.981Z,67.07
2023-02-11T06:45:21.491Z,58.90
2023-02-11T06:47:47.958Z,57.40
2023-02-11T06:50:15.091Z,61.53
2023-02-11T06:52:41.685Z,53.28
2023-02-11T06:55:08.594Z,50.08
2023-02-11T06:57:35.165Z,51.80
2023-02-11T07:00:01.706Z,55.35
2023-02-11T07:02:28.253Z,55.50
2023-02-11T07:04:54.745Z,53.15
2023-02-11T07:07:21.262Z,51.38
2023-02-11T07:09:47.816Z,53.45
2023-02-11T07:12:14.363Z,48.83
2023-02-11T07:14:40.895Z,53.72
2023-02-11T07:17:07.379Z,45.05
2023-02-11T07:19:33.816Z,50.55
2023-02-11T07:22:00.310Z,50.30
2023-02-11T07:24:26.920Z,49.08
2023-02-11T07:26:54.078Z,53.60
2023-02-11T07:29:20.557Z,52.63
2023-02-11T07:31:47.171Z,52.05
2023-02-11T07:34:13.802Z,55.75
2023-02-11T07:36:40.444Z,60.85
2023-02-11T07:39:06.979Z,60.85
2023-02-11T07:41:37.692Z,55.42
2023-02-11T07:44:04.822Z,52.05
2023-02-11T07:46:31.396Z,47.20
2023-02-11T07:48:58.295Z,50.70
2023-02-11T07:51:27.865Z,55.13
2023-02-11T07:53:55.801Z,50.10
2023-02-11T07:56:23.334Z,47.47
2023-02-11T07:58:50.470Z,48.85
2023-02-11T08:01:25.303Z,54.05
2023-02-11T08:03:52.191Z,53.10
2023-02-11T08:06:20.427Z,46.40
2023-02-11T08:08:47.407Z,52.15
2023-02-11T08:11:19.320Z,60.08
2023-02-11T08:13:46.481Z,49.25
2023-02-11T08:16:27.314Z,48.78
2023-02-11T08:18:57.398Z,48.97
2023-02-11T08:21:24.658Z,54.45
2023-02-11T08:23:51.951Z,42.95
2023-02-11T08:26:21.592Z,44.20
2023-02-11T08:28:49.498Z,49.60
2023-02-11T08:31:18.966Z,44.50
2023-02-11T08:33:46.040Z,41.83
2023-02-11T08:36:17.084Z,49.88
2023-02-11T08:38:44.163Z,44.10
2023-02-11T08:41:11.436Z,43.28
2023-02-11T08:43:41.697Z,44.38
2023-02-11T08:46:09.240Z,42.70
2023-02-11T08:48:35.980Z,43.40
2023-02-11T08:51:10.111Z,41.80
2023-02-11T08:53:37.286Z,42.33
2023-02-11T08:56:03.950Z,50.20
2023-02-11T08:58:30.525Z,40.90
2023-02-11T09:00:57.024Z,50.78
2023-02-11T09:03:23.636Z,44.83
2023-02-11T09:05:53.131Z,49.28
2023-02-11T09:08:20.738Z,45.85
2023-02-11T09:10:47.424Z,47.72
2023-02-11T09:13:14.508Z,44.38
2023-02-11T09:15:44.588Z,44.25
2023-02-11T09:18:11.086Z,44.88
2023-02-11T09:20:37.554Z,45.45
2023-02-11T09:23:04.493Z,40.85
2023-02-11T09:25:30.974Z,47.85
2023-02-11T09:27:57.501Z,44.15
2023-02-11T09:30:24.051Z,43.72
2023-02-11T09:32:50.580Z,43.67
2023-02-11T09:35:17.049Z,44.13
2023-02-11T09:37:43.535Z,40.72
2023-02-11T09:40:10.675Z,41.78
2023-02-11T09:43:09.170Z,37.38
2023-02-11T09:45:35.879Z,40.45
2023-02-11T09:48:11.155Z,42.17
2023-02-11T09:50:50.434Z,41.47
2023-02-11T09:53:29.632Z,42.38
2023-02-11T09:55:59.997Z,38.72
2023-02-11T09:58:29.742Z,38.47
2023-02-11T10:01:14.609Z,36.85
2023-02-11T10:03:56.273Z,36.95
2023-02-11T10:06:31.650Z,37.55
2023-02-11T10:09:42.716Z,35.22
2023-02-11T10:12:32.398Z,35.83
2023-02-11T10:14:58.830Z,38.08
2023-02-11T10:17:47.028Z,36.28
2023-02-11T10:20:29.526Z,36.13
2023-02-11T10:23:01.028Z,40.17
2023-02-11T10:25:34.852Z,38.15
2023-02-11T10:28:10.125Z,38.55
2023-02-11T10:30:53.094Z,37.85
2023-02-11T10:33:32.588Z,36.67
2023-02-11T10:35:59.550Z,36.25
2023-02-11T10:38:27.822Z,38.05
2023-02-11T10:40:54.384Z,39.45
2023-02-11T10:43:25.801Z,31.90
2023-02-11T10:45:54.015Z,35.75
2023-02-11T10:48:51.519Z,40.90
2023-02-11T10:51:21.022Z,32.50
2023-02-11T10:54:14.393Z,35.45
2023-02-11T10:56:45.826Z,34.15
2023-02-11T10:59:21.133Z,37.13
2023-02-11T11:02:00.693Z,37.25
2023-02-11T11:04:30.450Z,36.17
2023-02-11T11:07:09.445Z,34.58
2023-02-11T11:09:59.660Z,35.22
2023-02-11T11:12:48.431Z,36.03
2023-02-11T11:15:23.812Z,33.10
2023-02-11T11:18:20.993Z,31.13
2023-02-11T11:21:01.193Z,35.50
2023-02-11T11:23:29.935Z,35.00
2023-02-11T11:26:40.242Z,33.05
2023-02-11T11:29:16.235Z,36.88
2023-02-11T11:32:05.819Z,36.65
2023-02-11T11:34:41.840Z,39.35
2023-02-11T11:37:22.926Z,36.08
2023-02-11T11:40:07.766Z,34.03
2023-02-11T11:42:39.204Z,43.35
2023-02-11T11:45:20.815Z,35.85
2023-02-11T11:48:02.340Z,34.10
2023-02-11T11:50:38.088Z,37.70
2023-02-11T11:53:12.326Z,36.60
2023-02-11T11:55:45.229Z,36.33
2023-02-11T11:58:17.248Z,37.05
2023-02-11T12:00:52.218Z,35.85
2023-02-11T12:03:37.348Z,38.85
2023-02-11T12:06:21.102Z,34.88
2023-02-11T12:09:25.341Z,36.63
2023-02-11T12:12:16.020Z,33.83
2023-02-11T12:15:19.983Z,37.53
2023-02-11T12:18:04.637Z,36.42
2023-02-11T12:20:43.473Z,35.95
2023-02-11T12:23:44.225Z,36.97
2023-02-11T12:26:21.676Z,39.15
2023-02-11T12:29:12.916Z,38.75
2023-02-11T12:32:00.653Z,36.08
2023-02-11T12:34:35.920Z,37.47
2023-02-11T12:37:47.537Z,38.35
2023-02-11T12:40:38.212Z,37.85
2023-02-11T12:43:18.397Z,38.63
2023-02-11T12:46:26.135Z,41.00
2023-02-11T12:49:11.728Z,33.65
2023-02-11T12:51:56.841Z,37.20
2023-02-11T12:54:56.324Z,37.00
2023-02-11T12:57:27.054Z,34.70
2023-02-11T13:00:13.907Z,34.00
2023-02-11T13:02:55.698Z,32.67
2023-02-11T13:05:40.614Z,33.22
2023-02-11T13:08:19.515Z,30.92
2023-02-11T13:10:54.970Z,37.55
2023-02-11T13:13:26.611Z,33.72
2023-02-11T13:16:10.494Z,36.83
2023-02-11T13:18:49.630Z,33.33
2023-02-11T13:21:16.545Z,33.90
2023-02-11T13:23:49.174Z,31.50
2023-02-11T13:26:24.786Z,41.05
2023-02-11T13:29:00.093Z,35.80
2023-02-11T13:31:28.581Z,39.25
2023-02-11T13:33:55.623Z,35.85
2023-02-11T13:36:24.756Z,36.95
2023-02-11T13:39:03.833Z,39.05
2023-02-11T13:41:38.456Z,33.85
2023-02-11T13:44:10.689Z,35.78
2023-02-11T13:46:55.610Z,38.25
2023-02-11T13:49:47.792Z,35.75
2023-02-11T13:52:27.820Z,38.58
2023-02-11T13:54:57.677Z,35.05
2023-02-11T13:57:32.331Z,36.03
2023-02-11T14:00:34.020Z,33.75
2023-02-11T14:03:31.170Z,34.38
2023-02-11T14:06:44.645Z,37.95
2023-02-11T14:09:13.909Z,43.03
2023-02-11T14:11:40.813Z,39.30
2023-02-11T14:14:27.242Z,37.70
2023-02-11T14:16:59.761Z,32.58
2023-02-11T14:19:40.877Z,37.30
2023-02-11T14:22:10.427Z,37.10
2023-02-11T14:24:36.884Z,37.67
2023-02-11T14:27:09.929Z,41.83
2023-02-11T14:29:58.430Z,40.92
2023-02-11T14:32:43.484Z,37.42
2023-02-11T14:35:43.849Z,39.88
2023-02-11T14:38:29.518Z,43.90
2023-02-11T14:41:06.571Z,46.60
2023-02-11T14:43:40.926Z,38.65
2023-02-11T14:46:09.108Z,42.28
2023-02-11T14:48:39.189Z,39.88
2023-02-11T14:51:21.035Z,42.97
2023-02-11T14:53:50.984Z,34.15
2023-02-11T14:56:26.673Z,37.75
2023-02-11T14:58:54.889Z,36.90
2023-02-11T15:01:35.130Z,45.75
2023-02-11T15:04:04.352Z,42.83
2023-02-11T15:06:33.210Z,40.67
2023-02-11T15:09:04.986Z,38.58
2023-02-11T15:11:39.764Z,39.53
2023-02-11T15:14:22.847Z,36.30
2023-02-11T15:16:53.381Z,37.50
2023-02-11T15:19:38.376Z,37.72
2023-02-11T15:22:08.109Z,36.90
2023-02-11T15:24:35.631Z,39.67
2023-02-11T15:27:16.154Z,37.80
2023-02-11T15:29:51.127Z,39.53
2023-02-11T15:32:25.950Z,41.40
2023-02-11T15:34:54.224Z,33.60
2023-02-11T15:37:26.772Z,38.20
2023-02-11T15:39:54.669Z,40.13
2023-02-11T15:42:35.823Z,39.75
2023-02-11T15:45:09.245Z,32.70
2023-02-11T15:47:36.343Z,34.10
2023-02-11T15:50:03.034Z,33.58
2023-02-11T15:52:30.344Z,37.58
2023-02-11T15:55:01.626Z,34.97
2023-02-11T15:57:28.755Z,36.65
2023-02-11T15:59:56.315Z,31.00
2023-02-11T16:02:34.213Z,31.30
2023-02-11T16:05:05.241Z,32.25
2023-02-11T16:07:52.202Z,33.17
2023-02-11T16:10:29.289Z,31.67
2023-02-11T16:13:19.950Z,28.38
2023-02-11T16:15:49.261Z,27.00
2023-02-11T16:18:28.459Z,29.65
2023-02-11T16:21:02.185Z,31.35
2023-02-11T16:23:42.193Z,30.00
2023-02-11T16:26:29.429Z,30.95
2023-02-11T16:29:27.228Z,30.38
2023-02-11T16:32:08.905Z,29.58
2023-02-11T16:34:36.382Z,26.85
2023-02-11T16:37:05.406Z,31.20
2023-02-11T16:39:31.926Z,29.77
2023-02-11T16:41:58.770Z,30.75
2023-02-11T16:44:25.446Z,31.08
2023-02-11T16:46:53.340Z,27.30
2023-02-11T16:49:26.175Z,36.28
2023-02-11T16:51:56.928Z,31.23
2023-02-11T16:54:24.156Z,32.08
2023-02-11T16:56:50.697Z,28.45
2023-02-11T16:59:17.303Z,30.75
2023-02-11T17:01:44.890Z,33.20
2023-02-11T17:04:25.255Z,29.42
2023-02-11T17:06:51.777Z,32.30
2023-02-11T17:09:20.960Z,28.25
2023-02-11T17:11:47.856Z,28.92
2023-02-11T17:14:14.428Z,31.50
2023-02-11T17:16:41.222Z,38.70
2023-02-11T17:19:07.834Z,33.05
2023-02-11T17:21:34.379Z,39.50
2023-02-11T17:24:00.877Z,30.38
2023-02-11T17:26:27.342Z,36.00
2023-02-11T17:28:53.798Z,37.55
2023-02-11T17:31:20.335Z,38.55
2023-02-11T17:33:48.305Z,34.55
2023-02-11T17:36:14.840Z,40.70
2023-02-11T17:38:41.327Z,37.50
2023-02-11T17:41:07.886Z,36.05
2023-02-11T17:43:34.481Z,32.90
2023-02-11T17:46:01.054Z,38.42
2023-02-11T17:48:27.575Z,32.08
2023-02-11T17:50:54.116Z,38.58
2023-02-11T17:53:20.675Z,38.85
2023-02-11T17:55:47.214Z,33.60
2023-02-11T17:58:13.667Z,37.58
2023-02-11T18:00:40.274Z,42.55
2023-02-11T18:03:06.872Z,41.78
2023-02-11T18:05:35.162Z,39.55
2023-02-11T18:08:02.917Z,36.13
2023-02-11T18:10:29.617Z,37.80
2023-02-11T18:12:56.226Z,36.97
2023-02-11T18:15:23.346Z,38.63
2023-02-11T18:17:49.810Z,36.05
2023-02-11T18:20:16.497Z,37.88
2023-02-11T18:22:44.226Z,36.70
2023-02-11T18:25:14.020Z,41.67
2023-02-11T18:27:40.661Z,42.35
2023-02-11T18:30:08.466Z,35.50
2023-02-11T18:32:34.922Z,36.30
2023-02-11T18:35:01.396Z,43.80
2023-02-11T18:37:27.941Z,37.13
2023-02-11T18:39:54.464Z,39.38
2023-02-11T18:42:20.985Z,40.00
2023-02-11T18:44:47.484Z,38.33
2023-02-11T18:47:14.022Z,40.25
2023-02-11T18:49:40.489Z,39.53
2023-02-11T18:52:06.988Z,35.83
2023-02-11T18:54:33.457Z,39.22
2023-02-11T18:56:59.989Z,42.35
2023-02-11T18:59:26.649Z,40.33
2023-02-11T19:01:53.254Z,45.45
2023-02-11T19:04:20.118Z,43.13
2023-02-11T19:06:49.447Z,40.33
2023-02-11T19:09:19.280Z,38.15
2023-02-11T19:11:54.015Z,33.67
2023-02-11T19:14:31.651Z,42.55
2023-02-11T19:17:00.275Z,42.60
2023-02-11T19:19:29.723Z,52.75
2023-02-11T19:21:57.258Z,45.13
2023-02-11T19:24:24.692Z,36.10
2023-02-11T19:26:53.467Z,42.83
2023-02-11T19:29:20.021Z,35.35
2023-02-11T19:31:46.900Z,38.95
2023-02-11T19:34:15.347Z,38.65
2023-02-11T19:36:42.097Z,37.58
2023-02-11T19:39:10.046Z,41.97
2023-02-11T19:41:36.715Z,40.58
2023-02-11T19:44:04.890Z,43.65
2023-02-11T19:46:34.608Z,42.45
2023-02-11T19:49:01.964Z,35.72
2023-02-11T19:51:29.545Z,36.13
2023-02-11T19:53:58.005Z,41.45
2023-02-11T19:56:30.621Z,34.15
2023-02-11T19:58:57.366Z,38.77
2023-02-11T20:01:25.422Z,35.58
2023-02-11T20:03:54.019Z,37.15
2023-02-11T20:06:26.204Z,41.17
2023-02-11T20:08:58.595Z,38.20
2023-02-11T20:11:27.949Z,28.73
2023-02-11T20:13:55.078Z,40.20
2023-02-11T20:16:36.811Z,40.00
2023-02-11T20:19:14.896Z,40.55
2023-02-11T20:21:41.436Z,39.88
2023-02-11T20:24:07.956Z,42.63
2023-02-11T20:26:34.923Z,37.95
2023-02-11T20:29:04.981Z,38.63
2023-02-11T20:31:32.333Z,41.00
2023-02-11T20:34:00.060Z,38.78
2023-02-11T20:36:32.613Z,37.85
2023-02-11T20:39:00.220Z,29.48
2023-02-11T20:41:30.822Z,36.33
2023-02-11T20:43:59.533Z,38.85
2023-02-11T20:46:28.430Z,37.03
2023-02-11T20:48:56.382Z,36.55
2023-02-11T20:51:28.542Z,40.95
2023-02-11T20:53:55.375Z,39.13
2023-02-11T20:56:24.459Z,44.67
2023-02-11T20:58:51.898Z,37.65
2023-02-11T21:01:24.366Z,41.00
2023-02-11T21:04:15.511Z,42.63
2023-02-11T21:06:44.551Z,34.35
2023-02-11T21:09:13.977Z,41.08
2023-02-11T21:11:40.854Z,34.28
2023-02-11T21:14:07.697Z,40.05
2023-02-11T21:16:34.260Z,38.03
2023-02-11T21:19:01.197Z,39.90
2023-02-11T21:21:27.937Z,34.40
2023-02-11T21:23:56.040Z,42.17
2023-02-11T21:26:22.959Z,36.30
2023-02-11T21:28:50.045Z,44.80
2023-02-11T21:31:21.540Z,43.15
2023-02-11T21:33:49.593Z,37.60
2023-02-11T21:36:16.062Z,39.25
2023-02-11T21:38:43.021Z,46.15
2023-02-11T21:41:09.654Z,35.70
2023-02-11T21:43:36.165Z,36.90
2023-02-11T21:46:08.680Z,39.95
2023-02-11T21:48:35.238Z,38.78
2023-02-11T21:51:06.390Z,41.55
2023-02-11T21:53:33.037Z,41.80
2023-02-11T21:56:15.502Z,40.63
2023-02-11T21:58:42.452Z,39.95
2023-02-11T22:01:17.625Z,39.13
2023-02-11T22:03:45.306Z,39.58
2023-02-11T22:06:15.443Z,43.70
2023-02-11T22:08:42.161Z,38.78
2023-02-11T22:11:12.211Z,40.55
2023-02-11T22:13:39.428Z,40.58
2023-02-11T22:16:09.563Z,39.50
2023-02-11T22:18:36.616Z,39.58
2023-02-11T22:21:23.455Z,41.95
2023-02-11T22:23:51.116Z,46.13
2023-02-11T22:26:20.382Z,41.30
2023-02-11T22:28:47.263Z,42.00
2023-02-11T22:31:24.026Z,39.42
2023-02-11T22:33:50.845Z,33.35
2023-02-11T22:36:20.823Z,38.05
2023-02-11T22:38:48.059Z,34.55
2023-02-11T22:41:15.051Z,42.85
2023-02-11T22:43:43.219Z,39.78
2023-02-11T22:46:12.292Z,40.10
2023-02-11T22:48:38.786Z,36.47
2023-02-11T22:51:07.734Z,36.22
2023-02-11T22:53:34.765Z,40.25
2023-02-11T22:56:07.171Z,37.58
2023-02-11T22:58:34.930Z,35.10
2023-02-11T23:01:01.828Z,39.60
2023-02-11T23:03:29.277Z,36.90
2023-02-11T23:05:58.399Z,41.53
2023-02-11T23:08:25.874Z,37.03
2023-02-11T23:10:52.684Z,36.40
2023-02-11T23:13:19.173Z,37.67
2023-02-11T23:15:47.648Z,39.03
2023-02-11T23:18:14.360Z,36.90
2023-02-11T23:20:43.109Z,39.70
2023-02-11T23:23:09.665Z,39.20
2023-02-11T23:25:42.755Z,38.45
2023-02-11T23:28:09.790Z,46.50
2023-02-11T23:30:36.344Z,37.47
2023-02-11T23:33:02.859Z,40.55
2023-02-11T23:35:29.427Z,38.92
2023-02-11T23:37:55.879Z,42.65
2023-02-11T23:40:22.471Z,46.13
2023-02-11T23:42:49.042Z,39.95
2023-02-11T23:45:15.695Z,39.97
2023-02-11T23:47:42.228Z,40.30
2023-02-11T23:50:09.755Z,44.20
2023-02-11T23:52:36.596Z,39.88
2023-02-11T23:55:03.071Z,37.67
2023-02-11T23:57:32.564Z,37.67
2023-02-11T23:59:59.117Z,43.67
